createdAt,value
2023-07-26T00:01:23.093Z,93959.25
2023-07-26T00:04:17.055Z,93954.97
2023-07-26T00:07:04.074Z,93949.06
2023-07-26T00:09:37.170Z,93937.94
2023-07-26T00:12:24.045Z,93950.00
2023-07-26T00:15:04.097Z,93946.50
2023-07-26T00:17:58.109Z,93947.25
2023-07-26T00:20:52.076Z,93943.00
2023-07-26T00:23:39.085Z,93961.81
2023-07-26T00:26:12.138Z,93958.50
2023-07-26T00:28:59.082Z,93954.16
2023-07-26T00:31:39.086Z,93957.66
2023-07-26T00:34:33.089Z,93955.16
2023-07-26T00:37:27.056Z,93959.50
2023-07-26T00:40:14.076Z,93958.63
2023-07-26T00:42:47.181Z,93948.50
2023-07-26T00:45:37.094Z,93941.69
2023-07-26T00:48:11.264Z,93931.47
2023-07-26T00:50:58.130Z,93936.03
2023-07-26T00:53:31.200Z,93936.94
2023-07-26T00:56:18.072Z,93936.13
2023-07-26T00:58:51.267Z,93932.78
2023-07-26T01:01:38.105Z,93933.72
2023-07-26T01:04:11.274Z,93938.19
2023-07-26T01:07:19.134Z,93935.88
2023-07-26T01:09:57.187Z,93933.47
2023-07-26T01:12:57.135Z,93936.22
2023-07-26T01:15:44.124Z,93924.31
2023-07-26T01:18:31.099Z,93927.97
2023-07-26T01:21:11.102Z,93926.25
2023-07-26T01:24:05.082Z,93918.66
2023-07-26T01:26:59.182Z,93916.34
2023-07-26T01:29:53.111Z,93919.84
2023-07-26T01:32:49.166Z,93918.16
2023-07-26T01:35:43.127Z,93919.34
2023-07-26T01:38:33.126Z,93922.94
2023-07-26T01:41:08.238Z,93931.56
2023-07-26T01:43:55.098Z,93928.16
2023-07-26T01:46:28.261Z,93923.06
2023-07-26T01:49:15.140Z,93933.63
2023-07-26T01:51:48.242Z,93932.78
2023-07-26T01:54:35.095Z,93935.94
2023-07-26T01:57:08.329Z,93933.13
2023-07-26T01:59:55.179Z,93912.63
2023-07-26T02:02:28.406Z,93911.69
2023-07-26T02:05:15.149Z,93913.38
2023-07-26T02:07:48.390Z,93921.00
2023-07-26T02:10:35.114Z,93919.41
2023-07-26T02:13:08.268Z,93922.81
2023-07-26T02:15:55.164Z,93923.56
2023-07-26T02:18:37.178Z,93912.25
2023-07-26T02:21:31.434Z,93913.00
2023-07-26T02:24:25.135Z,93926.91
2023-07-26T02:27:19.113Z,93933.88
2023-07-26T02:30:06.117Z,93946.25
2023-07-26T02:32:39.288Z,93951.41
2023-07-26T02:35:26.131Z,93955.75
2023-07-26T02:37:59.246Z,93952.16
2023-07-26T02:40:46.149Z,93956.50
2023-07-26T02:43:27.237Z,93958.25
2023-07-26T02:46:22.214Z,93963.47
2023-07-26T02:48:58.230Z,93963.47
2023-07-26T02:51:45.148Z,93965.22
2023-07-26T02:54:18.257Z,93967.78
2023-07-26T02:57:05.152Z,93974.53
2023-07-26T02:59:45.167Z,93976.28
2023-07-26T03:02:39.198Z,93968.78
2023-07-26T03:05:33.148Z,93955.22
2023-07-26T03:08:27.140Z,93955.47
2023-07-26T03:11:14.170Z,93961.63
2023-07-26T03:13:47.580Z,93963.63
2023-07-26T03:16:34.433Z,93964.56
2023-07-26T03:19:09.294Z,93961.25
2023-07-26T03:21:56.143Z,93958.75
2023-07-26T03:24:36.223Z,93963.06
2023-07-26T03:27:24.702Z,93955.34
2023-07-26T03:30:24.215Z,93955.34
2023-07-26T03:33:18.163Z,93956.25
2023-07-26T03:36:05.171Z,93948.44
2023-07-26T03:38:38.260Z,93953.59
2023-07-26T03:41:25.137Z,93951.09
2023-07-26T03:43:58.274Z,93947.63
2023-07-26T03:46:45.158Z,93947.63
2023-07-26T03:49:18.274Z,93950.25
2023-07-26T03:52:05.172Z,93958.16
2023-07-26T03:54:45.707Z,93964.19
2023-07-26T03:57:33.179Z,93966.88
2023-07-26T04:00:06.270Z,93966.06
2023-07-26T04:02:53.287Z,93966.06
2023-07-26T04:05:29.276Z,93962.63
2023-07-26T04:08:16.196Z,93961.78
2023-07-26T04:10:49.289Z,93959.97
2023-07-26T04:13:36.180Z,93959.81
2023-07-26T04:16:31.553Z,93958.97
2023-07-26T04:19:18.179Z,93953.75
2023-07-26T04:21:58.180Z,93951.19
2023-07-26T04:24:59.222Z,93939.97
2023-07-26T04:27:53.192Z,93944.22
2023-07-26T04:30:40.232Z,93949.19
2023-07-26T04:33:20.263Z,93950.75
2023-07-26T04:36:07.193Z,93936.94
2023-07-26T04:38:40.348Z,93951.50
2023-07-26T04:41:27.197Z,93953.97
2023-07-26T04:44:00.290Z,93959.88
2023-07-26T04:46:47.249Z,93964.03
2023-07-26T04:49:27.214Z,93961.97
2023-07-26T04:52:21.186Z,93966.78
2023-07-26T04:55:08.205Z,93969.06
2023-07-26T04:57:46.337Z,93958.50
2023-07-26T05:00:34.266Z,93949.69
2023-07-26T05:03:14.209Z,93947.19
2023-07-26T05:06:01.198Z,93940.22
2023-07-26T05:08:42.240Z,93947.94
2023-07-26T05:11:36.657Z,93938.53
2023-07-26T05:14:25.216Z,93931.56
2023-07-26T05:16:58.342Z,93940.03
2023-07-26T05:19:45.239Z,93949.34
2023-07-26T05:22:18.357Z,93953.34
2023-07-26T05:25:05.223Z,93957.50
2023-07-26T05:27:38.343Z,93954.75
2023-07-26T05:30:28.276Z,93965.75
2023-07-26T05:33:08.230Z,93959.59
2023-07-26T05:36:02.221Z,93960.34
2023-07-26T05:38:49.221Z,93966.25
2023-07-26T05:41:22.505Z,93968.72
2023-07-26T05:44:09.219Z,93961.72
2023-07-26T05:46:42.407Z,93961.66
2023-07-26T05:49:29.236Z,93964.97
2023-07-26T05:52:02.411Z,93965.81
2023-07-26T05:54:49.220Z,93969.06
2023-07-26T05:57:29.253Z,93959.50
2023-07-26T06:00:25.231Z,93962.81
2023-07-26T06:03:12.309Z,93961.81
2023-07-26T06:05:54.269Z,93972.69
2023-07-26T06:08:48.276Z,93981.13
2023-07-26T06:11:51.603Z,93988.59
2023-07-26T06:14:43.250Z,93993.50
2023-07-26T06:17:17.597Z,93976.81
2023-07-26T06:20:04.284Z,93964.50
2023-07-26T06:22:44.236Z,93960.00
2023-07-26T06:25:38.271Z,93958.84
2023-07-26T06:28:32.289Z,93963.72
2023-07-26T06:31:27.276Z,93956.66
2023-07-26T06:34:14.308Z,93953.81
2023-07-26T06:36:54.269Z,93950.88
2023-07-26T06:39:41.273Z,93955.78
2023-07-26T06:42:14.381Z,93961.50
2023-07-26T06:45:01.264Z,93964.63
2023-07-26T06:47:34.440Z,93971.09
2023-07-26T06:50:21.272Z,93981.16
2023-07-26T06:52:54.394Z,93977.47
2023-07-26T06:55:42.279Z,93972.16
2023-07-26T06:58:15.429Z,93983.03
2023-07-26T07:01:03.267Z,93986.38
2023-07-26T07:03:36.445Z,93975.09
2023-07-26T07:06:23.288Z,93966.34
2023-07-26T07:08:58.346Z,93972.97
2023-07-26T07:11:46.287Z,93975.41
2023-07-26T07:14:20.194Z,93969.78
2023-07-26T07:17:08.295Z,93970.31
2023-07-26T07:19:41.389Z,93972.47
2023-07-26T07:22:29.289Z,93970.41
2023-07-26T07:25:02.408Z,93971.72
2023-07-26T07:27:49.294Z,93963.50
2023-07-26T07:30:22.448Z,93966.66
2023-07-26T07:33:09.303Z,93967.41
2023-07-26T07:35:42.391Z,93969.88
2023-07-26T07:38:29.293Z,93972.56
2023-07-26T07:41:02.372Z,93979.38
2023-07-26T07:43:49.320Z,93982.78
2023-07-26T07:46:29.308Z,93984.47
2023-07-26T07:49:23.320Z,93984.75
2023-07-26T07:52:10.305Z,93987.34
2023-07-26T07:54:43.398Z,93984.63
2023-07-26T07:57:30.393Z,93984.63
2023-07-26T08:00:04.464Z,93994.91
2023-07-26T08:02:51.367Z,93995.84
2023-07-26T08:05:31.305Z,93995.84
2023-07-26T08:08:18.291Z,93998.50
2023-07-26T08:10:51.423Z,94000.25
2023-07-26T08:13:38.331Z,93999.31
2023-07-26T08:16:11.531Z,93984.84
2023-07-26T08:18:58.330Z,93991.66
2023-07-26T08:21:38.315Z,93990.09
2023-07-26T08:24:32.368Z,93996.09
2023-07-26T08:27:19.349Z,93999.41
2023-07-26T08:29:55.460Z,93996.81
2023-07-26T08:32:43.360Z,94001.00
2023-07-26T08:35:16.450Z,94002.72
2023-07-26T08:38:03.328Z,94004.41
2023-07-26T08:40:43.314Z,94008.84
2023-07-26T08:43:38.337Z,94005.50
2023-07-26T08:46:33.325Z,94014.91
2023-07-26T08:49:30.343Z,94017.50
2023-07-26T08:52:24.343Z,94027.84
2023-07-26T08:55:19.368Z,94033.13
2023-07-26T08:58:10.344Z,94021.94
2023-07-26T09:00:57.407Z,94020.22
2023-07-26T09:03:44.409Z,94032.28
2023-07-26T09:06:17.473Z,94020.38
2023-07-26T09:09:06.822Z,94022.03
2023-07-26T09:11:41.437Z,94027.09
2023-07-26T09:14:35.370Z,94023.69
2023-07-26T09:17:11.504Z,94025.38
2023-07-26T09:19:58.345Z,94023.69
2023-07-26T09:22:38.381Z,94021.09
2023-07-26T09:25:59.347Z,94019.47
2023-07-26T09:28:58.372Z,94015.19
2023-07-26T09:31:42.583Z,94017.69
2023-07-26T09:34:30.395Z,94026.19
2023-07-26T09:37:11.368Z,94029.53
2023-07-26T09:39:58.403Z,94021.69
2023-07-26T09:42:31.498Z,94021.56
2023-07-26T09:45:27.368Z,94034.41
2023-07-26T09:51:20.444Z,94042.91
2023-07-26T09:54:01.389Z,94043.81
2023-07-26T09:56:51.371Z,94044.00
2023-07-26T09:59:26.124Z,94041.50
2023-07-26T10:02:17.444Z,94045.13
2023-07-26T10:05:00.134Z,94053.69
2023-07-26T10:07:48.386Z,94046.13
2023-07-26T10:10:24.471Z,94046.22
2023-07-26T10:13:12.397Z,94047.06
2023-07-26T10:15:49.537Z,94053.16
2023-07-26T10:18:38.374Z,94049.94
2023-07-26T10:21:19.380Z,94042.19
2023-07-26T10:24:16.576Z,94044.75
2023-07-26T10:27:03.411Z,94043.09
2023-07-26T10:29:36.489Z,94053.34
2023-07-26T10:32:23.431Z,94039.47
2023-07-26T10:35:05.292Z,94033.50
2023-07-26T10:37:54.393Z,94030.91
2023-07-26T10:40:45.566Z,94034.31
2023-07-26T10:43:32.398Z,94027.38
2023-07-26T10:46:15.767Z,94025.66
2023-07-26T10:49:02.418Z,94017.91
2023-07-26T10:51:39.524Z,94025.47
2023-07-26T10:54:44.405Z,94022.78
2023-07-26T10:57:30.396Z,94026.19
2023-07-26T11:00:31.400Z,94032.19
2023-07-26T11:03:18.465Z,94031.38
2023-07-26T11:06:08.415Z,94039.22
2023-07-26T11:08:59.409Z,94049.56
2023-07-26T11:11:35.696Z,94047.78
2023-07-26T11:14:25.511Z,94052.25
2023-07-26T11:17:09.489Z,94059.06
2023-07-26T11:20:05.422Z,94060.91
2023-07-26T11:22:52.411Z,94064.50
2023-07-26T11:25:25.761Z,94058.59
2023-07-26T11:28:12.413Z,94067.28
2023-07-26T11:30:46.553Z,94069.94
2023-07-26T11:33:41.434Z,94072.88
2023-07-26T11:36:15.528Z,94073.25
2023-07-26T11:39:02.448Z,94079.94
2023-07-26T11:41:42.420Z,94083.91
2023-07-26T11:44:37.446Z,94082.75
2023-07-26T11:47:25.447Z,94087.03
2023-07-26T11:50:02.508Z,94092.16
2023-07-26T11:52:49.432Z,94091.38
2023-07-26T11:55:22.539Z,94086.53
2023-07-26T11:58:15.463Z,94094.78
2023-07-26T12:00:50.540Z,94094.97
2023-07-26T12:03:38.588Z,94094.25
2023-07-26T12:06:12.561Z,94095.31
2023-07-26T12:08:59.437Z,94101.41
2023-07-26T12:11:39.504Z,94110.72
2023-07-26T12:14:33.442Z,94107.41
2023-07-26T12:17:22.473Z,94109.16
2023-07-26T12:19:55.573Z,94109.91
2023-07-26T12:22:58.466Z,94111.66
2023-07-26T12:25:45.579Z,94110.81
2023-07-26T12:28:32.435Z,94106.41
2023-07-26T12:31:12.481Z,94111.50
2023-07-26T12:34:14.465Z,94111.50
2023-07-26T12:37:08.498Z,94110.56
2023-07-26T12:39:57.468Z,94109.72
2023-07-26T12:42:37.464Z,94104.50
2023-07-26T12:45:24.456Z,94110.56
2023-07-26T12:47:57.651Z,94114.00
2023-07-26T12:50:48.017Z,94111.50
2023-07-26T12:53:28.460Z,94112.31
2023-07-26T12:56:15.476Z,94117.47
2023-07-26T13:01:52.844Z,94118.19
2023-07-26T13:04:46.595Z,94115.72
2023-07-26T13:07:33.467Z,94114.81
2023-07-26T13:10:15.492Z,94118.25
2023-07-26T13:13:02.464Z,94129.56
2023-07-26T13:15:35.636Z,94127.97
2023-07-26T13:18:22.485Z,94126.41
2023-07-26T13:21:03.470Z,94134.13
2023-07-26T13:23:57.843Z,94143.69
2023-07-26T13:26:44.480Z,94137.97
2023-07-26T13:29:17.766Z,94136.34
2023-07-26T13:32:04.477Z,94143.38
2023-07-26T13:34:37.796Z,94141.69
2023-07-26T13:37:24.498Z,94146.03
2023-07-26T13:39:57.895Z,94134.78
2023-07-26T13:42:44.562Z,94137.34
2023-07-26T13:45:25.795Z,94129.53
2023-07-26T13:48:19.660Z,94132.13
2023-07-26T13:51:13.505Z,94138.94
2023-07-26T13:54:00.498Z,94138.84
2023-07-26T13:56:33.919Z,94132.81
2023-07-26T13:59:21.493Z,94127.66
2023-07-26T14:01:54.609Z,94137.03
2023-07-26T14:04:41.540Z,94144.94
2023-07-26T14:07:21.663Z,94147.53
2023-07-26T14:10:08.518Z,94151.94
2023-07-26T14:12:48.563Z,94158.91
2023-07-26T14:15:35.519Z,94154.66
2023-07-26T14:18:15.634Z,94151.25
2023-07-26T14:21:09.516Z,94150.66
2023-07-26T14:24:03.522Z,94166.16
2023-07-26T14:26:50.525Z,94167.06
2023-07-26T14:29:30.558Z,94168.97
2023-07-26T14:32:17.517Z,94174.19
2023-07-26T14:34:50.631Z,94178.59
2023-07-26T14:37:37.515Z,94192.72
2023-07-26T14:40:11.602Z,94209.25
2023-07-26T14:42:58.490Z,94220.91
2023-07-26T14:45:38.482Z,94215.22
2023-07-26T14:48:25.499Z,94219.22
2023-07-26T14:51:05.472Z,94222.13
2023-07-26T14:53:59.715Z,94215.91
2023-07-26T14:57:00.285Z,94217.19
2023-07-26T14:59:38.695Z,94217.69
2023-07-26T15:02:26.588Z,94242.88
2023-07-26T15:04:59.659Z,94238.94
2023-07-26T15:07:46.511Z,94239.28
2023-07-26T15:10:21.509Z,94245.72
2023-07-26T15:13:09.515Z,94264.97
2023-07-26T15:15:52.513Z,94266.13
2023-07-26T15:18:39.523Z,94276.69
2023-07-26T15:21:14.587Z,94270.81
2023-07-26T15:24:08.490Z,94282.09
2023-07-26T15:27:02.523Z,94284.81
2023-07-26T15:29:49.522Z,94289.25
2023-07-26T15:32:24.038Z,94291.91
2023-07-26T15:35:11.529Z,94295.53
2023-07-26T15:37:55.540Z,94295.72
2023-07-26T15:43:23.079Z,94310.66
2023-07-26T15:46:32.368Z,94304.13
2023-07-26T15:49:03.607Z,94317.13
2023-07-26T15:51:50.522Z,94315.56
2023-07-26T15:54:23.613Z,94319.94
2023-07-26T15:57:10.500Z,94323.34
2023-07-26T15:59:43.631Z,94327.66
2023-07-26T16:11:17.529Z,94333.25
2023-07-26T16:13:50.624Z,94337.69
2023-07-26T16:19:14.185Z,94339.75
2023-07-26T16:22:01.530Z,94342.44
2023-07-26T16:24:34.710Z,94357.94
2023-07-26T16:27:21.532Z,94356.28
2023-07-26T16:29:54.727Z,94357.25
2023-07-26T16:32:41.583Z,94356.47
2023-07-26T16:35:15.672Z,94354.88
2023-07-26T16:38:02.543Z,94348.13
2023-07-26T16:40:35.645Z,94355.91
2023-07-26T16:43:22.577Z,94355.25
2023-07-26T16:46:02.599Z,94354.47
2023-07-26T16:48:49.542Z,94359.66
2023-07-26T16:51:22.665Z,94349.44
2023-07-26T16:54:09.570Z,94357.16
2023-07-26T16:56:42.665Z,94358.97
2023-07-26T16:59:29.572Z,94357.34
2023-07-26T17:02:02.663Z,94365.03
2023-07-26T17:04:49.555Z,94367.63
2023-07-26T17:07:22.671Z,94376.09
2023-07-26T17:10:09.565Z,94381.19
2023-07-26T17:12:42.951Z,94369.25
2023-07-26T17:15:29.580Z,94368.34
2023-07-26T17:18:09.633Z,94382.84
2023-07-26T17:21:03.572Z,94382.97
2023-07-26T17:23:50.566Z,94376.19
2023-07-26T17:26:23.785Z,94382.16
2023-07-26T17:29:03.581Z,94379.63
2023-07-26T17:31:43.650Z,94378.84
2023-07-26T17:34:16.667Z,94385.72
2023-07-26T17:37:03.718Z,94385.78
2023-07-26T17:39:39.749Z,94404.72
2023-07-26T17:42:26.604Z,94401.38
2023-07-26T17:45:06.652Z,94404.03
2023-07-26T17:48:00.653Z,94417.84
2023-07-26T17:50:47.582Z,94414.50
2023-07-26T17:53:21.883Z,94424.75
2023-07-26T17:56:08.597Z,94427.38
2023-07-26T17:58:51.634Z,94436.03
2023-07-26T18:01:38.646Z,94431.78
2023-07-26T18:04:20.634Z,94446.31
2023-07-26T18:07:07.580Z,94452.34
2023-07-26T18:09:47.630Z,94456.69
2023-07-26T18:12:42.628Z,94462.88
2023-07-26T18:15:36.799Z,94466.22
2023-07-26T18:18:24.661Z,94470.63
2023-07-26T18:21:01.734Z,94463.88
2023-07-26T18:23:49.601Z,94464.75
2023-07-26T18:26:25.759Z,94466.56
2023-07-26T18:29:15.610Z,94469.19
2023-07-26T18:31:48.770Z,94459.84
2023-07-26T18:34:35.617Z,94462.47
2023-07-26T18:37:13.711Z,94469.44
2023-07-26T18:40:00.584Z,94472.97
2023-07-26T18:42:36.759Z,94482.53
2023-07-26T18:45:26.600Z,94476.66
2023-07-26T18:48:09.666Z,94475.81
2023-07-26T18:51:09.613Z,94474.97
2023-07-26T18:54:10.622Z,94484.50
2023-07-26T18:57:04.594Z,94484.56
2023-07-26T18:59:51.622Z,94487.19
2023-07-26T19:02:25.325Z,94484.69
2023-07-26T19:05:15.649Z,94483.03
2023-07-26T19:07:49.258Z,94478.94
2023-07-26T19:10:35.805Z,94478.09
2023-07-26T19:13:15.621Z,94477.25
2023-07-26T19:16:05.928Z,94483.28
2023-07-26T19:18:46.971Z,94479.88
2023-07-26T19:21:41.606Z,94487.56
2023-07-26T19:24:35.843Z,94488.53
2023-07-26T19:27:29.955Z,94493.69
2023-07-26T19:30:17.021Z,94486.94
2023-07-26T19:32:51.171Z,94482.75
2023-07-26T19:35:38.029Z,94481.09
2023-07-26T19:38:12.138Z,94476.84
2023-07-26T19:41:11.656Z,94488.84
2023-07-26T19:43:45.023Z,94481.19
2023-07-26T19:46:32.141Z,94485.50
2023-07-26T19:49:05.814Z,94483.81
2023-07-26T19:51:52.655Z,94482.13
2023-07-26T19:54:25.888Z,94477.13
2023-07-26T19:57:12.621Z,94476.34
2023-07-26T19:59:45.823Z,94490.94
2023-07-26T20:02:32.877Z,94489.25
2023-07-26T20:05:06.753Z,94500.41
2023-07-26T20:07:53.652Z,94509.03
2023-07-26T20:10:26.827Z,94510.72
2023-07-26T20:13:13.649Z,94515.81
2023-07-26T20:15:46.837Z,94511.59
2023-07-26T20:18:33.664Z,94507.22
2023-07-26T20:21:08.604Z,94508.06
2023-07-26T20:23:55.708Z,94510.69
2023-07-26T20:26:31.552Z,94507.28
2023-07-26T20:29:18.658Z,94509.03
2023-07-26T20:31:51.826Z,94512.41
2023-07-26T20:34:38.648Z,94514.16
2023-07-26T20:37:12.269Z,94509.91
2023-07-26T20:40:03.953Z,94512.56
2023-07-26T20:42:37.937Z,94512.63
2023-07-26T20:45:24.697Z,94520.34
2023-07-26T20:47:58.930Z,94522.09
2023-07-26T20:50:45.675Z,94525.56
2023-07-26T20:53:18.828Z,94528.13
2023-07-26T20:56:07.664Z,94517.16
2023-07-26T20:58:40.878Z,94517.22
2023-07-26T21:01:27.727Z,94505.28
2023-07-26T21:04:01.247Z,94501.84
2023-07-26T21:06:47.673Z,94507.84
2023-07-26T21:09:21.624Z,94520.72
2023-07-26T21:12:08.682Z,94524.22
2023-07-26T21:14:42.805Z,94531.00
2023-07-26T21:17:31.735Z,94534.47
2023-07-26T21:20:05.039Z,94542.19
2023-07-26T21:22:51.672Z,94541.41
2023-07-26T21:25:31.672Z,94535.47
2023-07-26T21:28:18.674Z,94541.50
2023-07-26T21:31:04.738Z,94542.38
2023-07-26T21:33:51.688Z,94540.63
2023-07-26T21:36:32.992Z,94539.78
2023-07-26T21:39:26.741Z,94535.47
2023-07-26T21:42:13.672Z,94539.78
2023-07-26T21:44:53.695Z,94543.19
2023-07-26T21:47:40.723Z,94542.28
2023-07-26T21:50:14.839Z,94554.34
2023-07-26T21:53:03.824Z,94557.81
2023-07-26T21:55:37.992Z,94569.88
2023-07-26T21:58:24.741Z,94577.59
2023-07-26T22:01:04.745Z,94587.06
2023-07-26T22:03:59.714Z,94597.44
2023-07-26T22:06:46.743Z,94594.88
2023-07-26T22:09:19.898Z,94597.47
2023-07-26T22:12:06.743Z,94583.81
2023-07-26T22:14:39.868Z,94583.84
2023-07-26T22:17:26.787Z,94577.09
2023-07-26T22:20:00.829Z,94573.78
2023-07-26T22:22:47.728Z,94571.31
2023-07-26T22:25:42.759Z,94569.66
2023-07-26T22:28:29.748Z,94564.47
2023-07-26T22:31:03.128Z,94560.16
2023-07-26T22:33:49.731Z,94559.41
2023-07-26T22:36:22.881Z,94553.47
2023-07-26T22:39:09.703Z,94556.19
2023-07-26T22:41:49.723Z,94557.09
2023-07-26T22:44:36.744Z,94557.25
2023-07-26T22:47:09.847Z,94556.47
2023-07-26T22:50:01.717Z,94549.78
2023-07-26T22:52:41.744Z,94560.09
2023-07-26T22:55:28.740Z,94566.16
2023-07-26T22:58:08.738Z,94568.78
2023-07-26T23:01:02.831Z,94573.09
2023-07-26T23:03:50.789Z,94572.34
2023-07-26T23:06:30.945Z,94575.81
2023-07-26T23:09:24.742Z,94581.00
2023-07-26T23:12:12.748Z,94582.75
2023-07-26T23:14:52.747Z,94577.72
2023-07-26T23:17:39.751Z,94586.34
2023-07-26T23:20:13.918Z,94591.50
2023-07-26T23:23:03.737Z,94587.41
2023-07-26T23:25:37.104Z,94597.69
2023-07-26T23:28:23.742Z,94601.22
2023-07-26T23:30:58.957Z,94602.13
2023-07-26T23:33:45.761Z,94608.16
2023-07-26T23:36:19.053Z,94609.09
2023-07-26T23:39:05.735Z,94598.88
2023-07-26T23:41:45.807Z,94597.16
2023-07-26T23:44:32.747Z,94587.84
2023-07-26T23:47:12.807Z,94575.94
2023-07-26T23:50:06.755Z,94579.47
2023-07-26T23:52:53.846Z,94571.97
2023-07-26T23:55:26.904Z,94574.63
2023-07-26T23:58:13.812Z,94570.50
